CheckWX is a tool to help pilots better visualize weather data.  It is not intended as a substitute for an official pre-flight weather briefing.

09:08:09 UTC

KAXH METAR
Houston-Southwest Airport
Houston, Texas, USA
Current

13 mins ago

KAXH 170855Z AUTO 00000KT 7SM CLR 25/25 A3002 RMK AO2 T02470247
Observed
Jul-17 @ 08:55 UTC
Visibility
7 SM
Flight Rules
VFR
Cloud Levels
  • Clear skies
Temperature
25°C / 77°F
Dewpoint
25°C / 77°F
Humidity
100%
Altimeter
30.02" Hg
Pressure
1016.62 hPa
Previous

33 mins ago

KAXH 170835Z AUTO 00000KT 5SM BR CLR 25/25 A3002 RMK AO2 T02460246
Observed
Jul-17 @ 08:35 UTC
Visibility
5 SM
Flight Rules
MVFR
Conditions
Mist
Cloud Levels
  • Clear skies
Temperature
25°C / 77°F
Dewpoint
25°C / 77°F
Humidity
100%
Altimeter
30.02" Hg
Pressure
1016.62 hPa
Previous

53 mins ago

KAXH 170815Z AUTO 00000KT 7SM CLR 25/25 A3002 RMK AO2 T02470247
Observed
Jul-17 @ 08:15 UTC
Visibility
7 SM
Flight Rules
VFR
Cloud Levels
  • Clear skies
Temperature
25°C / 77°F
Dewpoint
25°C / 77°F
Humidity
100%
Altimeter
30.02" Hg
Pressure
1016.62 hPa